sensor_id;sensor_type;location;lat;lon;timestamp;pressure;altitude;pressure_sealevel;temperature;humidity
64844;BME280;51310;52.198;5.422;2023-12-04T00:01:33;101113.97;;;0.09;99.73
64844;BME280;51310;52.198;5.422;2023-12-04T00:04:01;101120.09;;;0.08;99.54
64844;BME280;51310;52.198;5.422;2023-12-04T00:06:27;101106.94;;;0.11;99.68
64844;BME280;51310;52.198;5.422;2023-12-04T00:08:53;101086.88;;;0.06;99.56
64844;BME280;51310;52.198;5.422;2023-12-04T00:11:19;101093.84;;;0.07;99.42
64844;BME280;51310;52.198;5.422;2023-12-04T00:13:44;101097.22;;;0.16;99.52
64844;BME280;51310;52.198;5.422;2023-12-04T00:16:10;101068.47;;;0.07;99.21
64844;BME280;51310;52.198;5.422;2023-12-04T00:18:36;101077.97;;;0.16;99.14
64844;BME280;51310;52.198;5.422;2023-12-04T00:21:02;101101.47;;;0.25;99.02
64844;BME280;51310;52.198;5.422;2023-12-04T00:23:28;101090.19;;;0.18;99.04
64844;BME280;51310;52.198;5.422;2023-12-04T00:25:55;101081.47;;;0.15;98.84
64844;BME280;51310;52.198;5.422;2023-12-04T00:28:21;101088.34;;;0.24;98.88
64844;BME280;51310;52.198;5.422;2023-12-04T00:30:47;101081.34;;;0.23;98.67
64844;BME280;51310;52.198;5.422;2023-12-04T00:33:13;101075.19;;;0.25;98.65
64844;BME280;51310;52.198;5.422;2023-12-04T00:35:39;101058.72;;;0.12;98.20
64844;BME280;51310;52.198;5.422;2023-12-04T00:38:05;101068.22;;;0.23;98.35
64844;BME280;51310;52.198;5.422;2023-12-04T00:40:31;101065.59;;;0.23;98.27
64844;BME280;51310;52.198;5.422;2023-12-04T00:42:57;101062.22;;;0.13;98.09
64844;BME280;51310;52.198;5.422;2023-12-04T00:45:23;101043.91;;;0.08;98.09
64844;BME280;51310;52.198;5.422;2023-12-04T00:47:49;101051.75;;;0.11;97.85
64844;BME280;51310;52.198;5.422;2023-12-04T00:50:15;101052.56;;;0.13;97.80
64844;BME280;51310;52.198;5.422;2023-12-04T00:52:41;101066.41;;;0.25;97.89
64844;BME280;51310;52.198;5.422;2023-12-04T00:55:07;101039.44;;;0.13;97.51
64844;BME280;51310;52.198;5.422;2023-12-04T00:57:33;101062.91;;;0.26;97.59
64844;BME280;51310;52.198;5.422;2023-12-04T00:59:59;101042.91;;;0.15;97.34
64844;BME280;51310;52.198;5.422;2023-12-04T01:02:25;101055.06;;;0.23;97.56
64844;BME280;51310;52.198;5.422;2023-12-04T01:04:51;101044.69;;;0.13;97.44
64844;BME280;51310;52.198;5.422;2023-12-04T01:07:16;101053.41;;;0.15;97.44
64844;BME280;51310;52.198;5.422;2023-12-04T01:09:42;101054.31;;;0.16;97.41
64844;BME280;51310;52.198;5.422;2023-12-04T01:12:08;101039.44;;;0.13;97.59
64844;BME280;51310;52.198;5.422;2023-12-04T01:14:35;101057.72;;;0.19;97.56
64844;BME280;51310;52.198;5.422;2023-12-04T01:17:04;101053.25;;;0.25;97.34
64844;BME280;51310;52.198;5.422;2023-12-04T01:19:29;101041.97;;;0.18;97.43
64844;BME280;51310;52.198;5.422;2023-12-04T01:21:55;101060.19;;;0.29;97.46
64844;BME280;51310;52.198;5.422;2023-12-04T01:24:21;101032.34;;;0.18;97.33
64844;BME280;51310;52.198;5.422;2023-12-04T01:26:47;101048.81;;;0.30;97.55
64844;BME280;51310;52.198;5.422;2023-12-04T01:29:13;101040.88;;;0.31;97.36
64844;BME280;51310;52.198;5.422;2023-12-04T01:31:39;101022.63;;;0.22;97.20
64844;BME280;51310;52.198;5.422;2023-12-04T01:34:04;101040.91;;;0.30;97.41
64844;BME280;51310;52.198;5.422;2023-12-04T01:36:30;101019.22;;;0.18;97.24
64844;BME280;51310;52.198;5.422;2023-12-04T01:38:56;101033.91;;;0.30;97.23
64844;BME280;51310;52.198;5.422;2023-12-04T01:41:22;101022.56;;;0.27;97.15
64844;BME280;51310;52.198;5.422;2023-12-04T01:43:48;101006.09;;;0.15;97.27
64844;BME280;51310;52.198;5.422;2023-12-04T01:46:16;101013.81;;;0.26;97.16
64844;BME280;51310;52.198;5.422;2023-12-04T01:48:45;101009.63;;;0.16;96.98
64844;BME280;51310;52.198;5.422;2023-12-04T01:51:12;101020.16;;;0.14;97.18
64844;BME280;51310;52.198;5.422;2023-12-04T01:53:40;101001.09;;;0.02;97.09
64844;BME280;51310;52.198;5.422;2023-12-04T01:56:08;101014.91;;;0.14;97.13
64844;BME280;51310;52.198;5.422;2023-12-04T01:58:35;101009.63;;;0.14;96.99
64844;BME280;51310;52.198;5.422;2023-12-04T02:01:01;100997.50;;;0.07;97.13
64844;BME280;51310;52.198;5.422;2023-12-04T02:03:28;101009.63;;;0.14;97.17
64844;BME280;51310;52.198;5.422;2023-12-04T02:05:54;100990.56;;;0.03;96.90
64844;BME280;51310;52.198;5.422;2023-12-04T02:08:25;100991.22;;;0.16;97.13
64844;BME280;51310;52.198;5.422;2023-12-04T02:10:51;100985.06;;;0.15;96.89
64844;BME280;51310;52.198;5.422;2023-12-04T02:13:17;100975.63;;;0.05;96.91
64844;BME280;51310;52.198;5.422;2023-12-04T02:15:44;100993.88;;;0.14;97.01
64844;BME280;51310;52.198;5.422;2023-12-04T02:18:15;100981.69;;;0.10;96.89
64844;BME280;51310;52.198;5.422;2023-12-04T02:20:43;100963.38;;;0.06;96.87
64844;BME280;51310;52.198;5.422;2023-12-04T02:23:09;100984.22;;;0.15;97.04
64844;BME280;51310;52.198;5.422;2023-12-04T02:25:35;100980.72;;;0.16;96.71
64844;BME280;51310;52.198;5.422;2023-12-04T02:28:04;100980.66;;;0.17;96.80
64844;BME280;51310;52.198;5.422;2023-12-04T02:30:33;100979.78;;;0.18;96.78
64844;BME280;51310;52.198;5.422;2023-12-04T02:33:06;100977.94;;;0.22;96.77
64844;BME280;51310;52.198;5.422;2023-12-04T02:35:34;100971.81;;;0.23;96.58
64844;BME280;51310;52.198;5.422;2023-12-04T02:38:02;100962.16;;;0.24;96.54
64844;BME280;51310;52.198;5.422;2023-12-04T02:40:29;100953.50;;;0.18;96.48
64844;BME280;51310;52.198;5.422;2023-12-04T02:42:55;100950.78;;;0.23;96.11
64844;BME280;51310;52.198;5.422;2023-12-04T02:45:21;100959.53;;;0.25;96.10
64844;BME280;51310;52.198;5.422;2023-12-04T02:47:47;100943.75;;;0.25;95.94
64844;BME280;51310;52.198;5.422;2023-12-04T02:50:13;100923.78;;;0.13;95.90
64844;BME280;51310;52.198;5.422;2023-12-04T02:52:39;100928.06;;;0.20;95.77
64844;BME280;51310;52.198;5.422;2023-12-04T02:55:05;100915.09;;;0.11;95.71
64844;BME280;51310;52.198;5.422;2023-12-04T02:57:31;100928.94;;;0.19;95.67
64844;BME280;51310;52.198;5.422;2023-12-04T02:59:57;100923.69;;;0.19;95.52
64844;BME280;51310;52.198;5.422;2023-12-04T03:02:23;100901.97;;;0.10;95.50
64844;BME280;51310;52.198;5.422;2023-12-04T03:04:49;100912.41;;;0.14;95.33
64844;BME280;51310;52.198;5.422;2023-12-04T03:07:15;100900.28;;;0.07;95.18
64844;BME280;51310;52.198;5.422;2023-12-04T03:09:40;100896.72;;;0.10;95.15
64844;BME280;51310;52.198;5.422;2023-12-04T03:12:06;100894.00;;;0.14;95.16
64844;BME280;51310;52.198;5.422;2023-12-04T03:14:32;100893.94;;;0.17;94.97
64844;BME280;51310;52.198;5.422;2023-12-04T03:16:58;100902.63;;;0.23;94.74
64844;BME280;51310;52.198;5.422;2023-12-04T03:19:24;100893.91;;;0.20;94.55
64844;BME280;51310;52.198;5.422;2023-12-04T03:21:50;100893.81;;;0.24;94.45
64844;BME280;51310;52.198;5.422;2023-12-04T03:24:16;100888.69;;;0.17;94.38
64844;BME280;51310;52.198;5.422;2023-12-04T03:26:42;100892.97;;;0.23;93.96
64844;BME280;51310;52.198;5.422;2023-12-04T03:29:07;100891.22;;;0.22;94.01
64844;BME280;51310;52.198;5.422;2023-12-04T03:31:33;100886.03;;;0.19;93.70
64844;BME280;51310;52.198;5.422;2023-12-04T03:33:59;100868.56;;;0.16;93.85
64844;BME280;51310;52.198;5.422;2023-12-04T03:36:25;100879.84;;;0.22;93.72
64844;BME280;51310;52.198;5.422;2023-12-04T03:38:51;100859.00;;;0.12;93.50
64844;BME280;51310;52.198;5.422;2023-12-04T03:41:17;100866.72;;;0.20;93.24
64844;BME280;51310;52.198;5.422;2023-12-04T03:43:43;100869.34;;;0.22;93.37
64844;BME280;51310;52.198;5.422;2023-12-04T03:46:09;100845.09;;;0.07;93.18
64844;BME280;51310;52.198;5.422;2023-12-04T03:48:35;100838.94;;;0.07;93.23
64844;BME280;51310;52.198;5.422;2023-12-04T03:51:01;100857.09;;;0.20;93.07
64844;BME280;51310;52.198;5.422;2023-12-04T03:53:27;100856.22;;;0.20;93.03
64844;BME280;51310;52.198;5.422;2023-12-04T03:55:53;100844.91;;;0.16;92.88
64844;BME280;51310;52.198;5.422;2023-12-04T03:58:19;100851.03;;;0.15;92.56
64844;BME280;51310;52.198;5.422;2023-12-04T04:00:45;100848.41;;;0.15;92.51
64844;BME280;51310;52.198;5.422;2023-12-04T04:03:11;100847.50;;;0.18;92.47
64844;BME280;51310;52.198;5.422;2023-12-04T04:05:37;100823.25;;;0.05;92.11
64844;BME280;51310;52.198;5.422;2023-12-04T04:08:05;100840.59;;;0.14;92.16
64844;BME280;51310;52.198;5.422;2023-12-04T04:10:33;100827.50;;;0.11;91.97
64844;BME280;51310;52.198;5.422;2023-12-04T04:12:59;100811.97;;;0.00;91.89
64844;BME280;51310;52.198;5.422;2023-12-04T04:15:25;100830.94;;;0.14;91.63
64844;BME280;51310;52.198;5.422;2023-12-04T04:17:52;100817.88;;;0.10;91.76
64844;BME280;51310;52.198;5.422;2023-12-04T04:20:18;100798.03;;;-0.05;91.61
64844;BME280;51310;52.198;5.422;2023-12-04T04:22:44;100815.16;;;0.14;91.53
64844;BME280;51310;52.198;5.422;2023-12-04T04:25:12;100797.00;;;0.02;91.17
64844;BME280;51310;52.198;5.422;2023-12-04T04:27:38;100814.34;;;0.12;91.05
64844;BME280;51310;52.198;5.422;2023-12-04T04:30:04;100813.38;;;0.16;90.89
64844;BME280;51310;52.198;5.422;2023-12-04T04:32:30;100806.25;;;0.22;90.60
64844;BME280;51310;52.198;5.422;2023-12-04T04:34:57;100797.56;;;0.18;90.53
64844;BME280;51310;52.198;5.422;2023-12-04T04:37:23;100801.09;;;0.17;90.24
64844;BME280;51310;52.198;5.422;2023-12-04T04:39:48;100800.13;;;0.21;90.28
64844;BME280;51310;52.198;5.422;2023-12-04T04:42:15;100778.44;;;0.11;89.98
64844;BME280;51310;52.198;5.422;2023-12-04T04:44:40;100770.59;;;0.08;90.11
64844;BME280;51310;52.198;5.422;2023-12-04T04:47:06;100801.00;;;0.22;90.01
64844;BME280;51310;52.198;5.422;2023-12-04T04:49:33;100786.97;;;0.23;89.89
64844;BME280;51310;52.198;5.422;2023-12-04T04:51:59;100768.78;;;0.12;89.88
64844;BME280;51310;52.198;5.422;2023-12-04T04:54:25;100785.31;;;0.18;90.01
64844;BME280;51310;52.198;5.422;2023-12-04T04:56:50;100792.28;;;0.19;90.19
64844;BME280;51310;52.198;5.422;2023-12-04T04:59:16;100792.22;;;0.23;90.31
64844;BME280;51310;52.198;5.422;2023-12-04T05:01:42;100776.63;;;0.13;90.38
64844;BME280;51310;52.198;5.422;2023-12-04T05:04:08;100792.22;;;0.23;90.37
64844;BME280;51310;52.198;5.422;2023-12-04T05:06:34;100767.06;;;0.11;90.20
64844;BME280;51310;52.198;5.422;2023-12-04T05:09:00;100793.09;;;0.23;90.45
64844;BME280;51310;52.198;5.422;2023-12-04T05:11:26;100786.97;;;0.23;90.43
64844;BME280;51310;52.198;5.422;2023-12-04T05:13:52;100773.84;;;0.21;90.17
64844;BME280;51310;52.198;5.422;2023-12-04T05:16:18;100764.38;;;0.14;90.11
64844;BME280;51310;52.198;5.422;2023-12-04T05:18:43;100750.34;;;0.13;90.33
64844;BME280;51310;52.198;5.422;2023-12-04T05:21:10;100763.47;;;0.15;90.17
64844;BME280;51310;52.198;5.422;2023-12-04T05:23:40;100774.72;;;0.22;90.21
64844;BME280;51310;52.198;5.422;2023-12-04T05:26:07;100759.91;;;0.17;90.35
64844;BME280;51310;52.198;5.422;2023-12-04T05:28:34;100765.03;;;0.24;90.46
64844;BME280;51310;52.198;5.422;2023-12-04T05:31:00;100762.41;;;0.24;90.22
64844;BME280;51310;52.198;5.422;2023-12-04T05:33:26;100736.34;;;0.13;90.36
64844;BME280;51310;52.198;5.422;2023-12-04T05:35:52;100753.72;;;0.20;90.01
64844;BME280;51310;52.198;5.422;2023-12-04T05:38:19;100757.16;;;0.24;90.07
64844;BME280;51310;52.198;5.422;2023-12-04T05:40:45;100746.72;;;0.20;90.06
64844;BME280;51310;52.198;5.422;2023-12-04T05:43:10;100731.94;;;0.15;89.86
64844;BME280;51310;52.198;5.422;2023-12-04T05:45:37;100741.38;;;0.24;89.85
64844;BME280;51310;52.198;5.422;2023-12-04T05:48:04;100712.75;;;0.11;89.63
64844;BME280;51310;52.198;5.422;2023-12-04T05:50:30;100728.22;;;0.25;89.56
64844;BME280;51310;52.198;5.422;2023-12-04T05:52:56;100711.72;;;0.18;89.78
64844;BME280;51310;52.198;5.422;2023-12-04T05:55:21;100722.06;;;0.25;89.51
64844;BME280;51310;52.198;5.422;2023-12-04T05:57:47;100689.03;;;0.14;89.45
64844;BME280;51310;52.198;5.422;2023-12-04T06:00:14;100712.47;;;0.24;89.14
64844;BME280;51310;52.198;5.422;2023-12-04T06:02:42;100704.78;;;0.14;89.21
64844;BME280;51310;52.198;5.422;2023-12-04T06:05:09;100688.16;;;0.14;89.02
64844;BME280;51310;52.198;5.422;2023-12-04T06:07:38;100686.28;;;0.19;89.20
64844;BME280;51310;52.198;5.422;2023-12-04T06:10:05;100710.69;;;0.26;89.22
64844;BME280;51310;52.198;5.422;2023-12-04T06:12:32;100708.78;;;0.32;88.86
64844;BME280;51310;52.198;5.422;2023-12-04T06:14:58;100682.69;;;0.23;88.56
64844;BME280;51310;52.198;5.422;2023-12-04T06:17:27;100700.69;;;0.40;88.26
64844;BME280;51310;52.198;5.422;2023-12-04T06:19:53;100707.81;;;0.36;88.11
64844;BME280;51310;52.198;5.422;2023-12-04T06:22:20;100703.44;;;0.35;88.30
64844;BME280;51310;52.198;5.422;2023-12-04T06:24:48;100707.81;;;0.36;88.25
64844;BME280;51310;52.198;5.422;2023-12-04T06:27:19;100711.28;;;0.37;88.30
64844;BME280;51310;52.198;5.422;2023-12-04T06:29:46;100692.28;;;0.26;87.88
64844;BME280;51310;52.198;5.422;2023-12-04T06:32:13;100708.66;;;0.37;87.94
64844;BME280;51310;52.198;5.422;2023-12-04T06:34:39;100691.34;;;0.28;87.90
64844;BME280;51310;52.198;5.422;2023-12-04T06:37:13;100690.28;;;0.35;87.58
64844;BME280;51310;52.198;5.422;2023-12-04T06:39:40;100694.59;;;0.39;87.51
64844;BME280;51310;52.198;5.422;2023-12-04T06:42:08;100683.34;;;0.33;87.34
64844;BME280;51310;52.198;5.422;2023-12-04T06:44:36;100686.72;;;0.38;87.50
64844;BME280;51310;52.198;5.422;2023-12-04T06:47:03;100675.38;;;0.36;87.54
64844;BME280;51310;52.198;5.422;2023-12-04T06:49:32;100677.09;;;0.38;87.38
64844;BME280;51310;52.198;5.422;2023-12-04T06:52:01;100674.50;;;0.37;87.04
64844;BME280;51310;52.198;5.422;2023-12-04T06:54:28;100666.53;;;0.40;87.04
64844;BME280;51310;52.198;5.422;2023-12-04T06:56:54;100670.91;;;0.39;86.83
64844;BME280;51310;52.198;5.422;2023-12-04T06:59:20;100662.22;;;0.36;86.90
64844;BME280;51310;52.198;5.422;2023-12-04T07:01:46;100651.81;;;0.31;86.70
64844;BME280;51310;52.198;5.422;2023-12-04T07:04:12;100657.78;;;0.39;86.49
64844;BME280;51310;52.198;5.422;2023-12-04T07:06:39;100634.38;;;0.29;86.32
64844;BME280;51310;52.198;5.422;2023-12-04T07:09:06;100640.34;;;0.35;86.02
64844;BME280;51310;52.198;5.422;2023-12-04T07:11:35;100650.72;;;0.41;86.03
64844;BME280;51310;52.198;5.422;2023-12-04T07:14:01;100636.88;;;0.33;85.71
64844;BME280;51310;52.198;5.422;2023-12-04T07:16:27;100658.59;;;0.43;85.58
64844;BME280;51310;52.198;5.422;2023-12-04T07:18:53;100644.53;;;0.44;85.37
64844;BME280;51310;52.198;5.422;2023-12-04T07:21:19;100628.16;;;0.31;85.15
64844;BME280;51310;52.198;5.422;2023-12-04T07:23:45;100622.91;;;0.31;85.11
64844;BME280;51310;52.198;5.422;2023-12-04T07:26:11;100641.00;;;0.45;85.36
64844;BME280;51310;52.198;5.422;2023-12-04T07:28:38;100635.75;;;0.45;84.91
64844;BME280;51310;52.198;5.422;2023-12-04T07:31:04;100613.94;;;0.40;85.18
64844;BME280;51310;52.198;5.422;2023-12-04T07:33:30;100636.59;;;0.46;84.75
64844;BME280;51310;52.198;5.422;2023-12-04T07:35:56;100624.47;;;0.40;84.38
64844;BME280;51310;52.198;5.422;2023-12-04T07:38:22;100616.66;;;0.37;84.14
64844;BME280;51310;52.198;5.422;2023-12-04T07:40:47;100620.78;;;0.47;84.14
64844;BME280;51310;52.198;5.422;2023-12-04T07:43:13;100633.84;;;0.50;84.18
64844;BME280;51310;52.198;5.422;2023-12-04T07:45:43;100629.66;;;0.43;83.82
64844;BME280;51310;52.198;5.422;2023-12-04T07:48:09;100639.03;;;0.53;83.79
64844;BME280;51310;52.198;5.422;2023-12-04T07:50:35;100635.53;;;0.54;83.83
64844;BME280;51310;52.198;5.422;2023-12-04T07:53:03;100636.41;;;0.53;83.30
64844;BME280;51310;52.198;5.422;2023-12-04T07:55:29;100619.91;;;0.47;83.30
64844;BME280;51310;52.198;5.422;2023-12-04T07:57:55;100617.38;;;0.44;83.34
64844;BME280;51310;52.198;5.422;2023-12-04T08:00:21;100605.09;;;0.44;83.22
64844;BME280;51310;52.198;5.422;2023-12-04T08:02:48;100609.28;;;0.51;83.07
64844;BME280;51310;52.198;5.422;2023-12-04T08:05:14;100615.34;;;0.55;83.02
64844;BME280;51310;52.198;5.422;2023-12-04T08:07:40;100624.91;;;0.57;82.76
64844;BME280;51310;52.198;5.422;2023-12-04T08:10:07;100612.69;;;0.56;82.75
64844;BME280;51310;52.198;5.422;2023-12-04T08:12:33;100622.16;;;0.62;82.75
64844;BME280;51310;52.198;5.422;2023-12-04T08:14:59;100624.75;;;0.64;82.62
64844;BME280;51310;52.198;5.422;2023-12-04T08:17:25;100620.25;;;0.69;82.48
64844;BME280;51310;52.198;5.422;2023-12-04T08:19:51;100613.47;;;0.58;81.81
64844;BME280;51310;52.198;5.422;2023-12-04T08:22:17;100629.78;;;0.73;82.04
64844;BME280;51310;52.198;5.422;2023-12-04T08:24:43;100635.91;;;0.73;81.87
64844;BME280;51310;52.198;5.422;2023-12-04T08:27:09;100623.59;;;0.75;81.54
64844;BME280;51310;52.198;5.422;2023-12-04T08:29:35;100634.97;;;0.76;81.21
64844;BME280;51310;52.198;5.422;2023-12-04T08:32:01;100613.06;;;0.75;81.25
64844;BME280;51310;52.198;5.422;2023-12-04T08:34:26;100630.53;;;0.78;80.97
64844;BME280;51310;52.198;5.422;2023-12-04T08:36:53;100611.50;;;0.68;81.15
64844;BME280;51310;52.198;5.422;2023-12-04T08:39:18;100621.81;;;0.76;81.10
64844;BME280;51310;52.198;5.422;2023-12-04T08:41:46;100613.88;;;0.77;80.59
64844;BME280;51310;52.198;5.422;2023-12-04T08:44:14;100595.66;;;0.70;80.63
64844;BME280;51310;52.198;5.422;2023-12-04T08:46:42;100614.72;;;0.79;80.44
64844;BME280;51310;52.198;5.422;2023-12-04T08:49:09;100608.50;;;0.82;80.01
64844;BME280;51310;52.198;5.422;2023-12-04T08:51:35;100596.41;;;0.75;79.40
64844;BME280;51310;52.198;5.422;2023-12-04T08:54:01;100591.16;;;0.75;79.18
64844;BME280;51310;52.198;5.422;2023-12-04T08:56:28;100592.97;;;0.73;78.90
64844;BME280;51310;52.198;5.422;2023-12-04T08:58:55;100596.09;;;0.86;78.81
64844;BME280;51310;52.198;5.422;2023-12-04T09:01:20;100576.00;;;0.83;77.79
64844;BME280;51310;52.198;5.422;2023-12-04T09:03:46;100577.66;;;0.87;77.27
64844;BME280;51310;52.198;5.422;2023-12-04T09:06:12;100585.38;;;0.95;76.97
64844;BME280;51310;52.198;5.422;2023-12-04T09:08:40;100585.94;;;1.06;77.00
64844;BME280;51310;52.198;5.422;2023-12-04T09:11:06;100594.56;;;1.11;77.01
64844;BME280;51310;52.198;5.422;2023-12-04T09:13:32;100596.22;;;1.14;76.88
64844;BME280;51310;52.198;5.422;2023-12-04T09:15:59;100567.53;;;1.04;76.53
64844;BME280;51310;52.198;5.422;2023-12-04T09:18:25;100556.06;;;1.07;76.79
64844;BME280;51310;52.198;5.422;2023-12-04T09:20:51;100586.38;;;1.22;76.47
64844;BME280;51310;52.198;5.422;2023-12-04T09:23:17;100586.28;;;1.23;76.17
64844;BME280;51310;52.198;5.422;2023-12-04T09:25:43;100576.59;;;1.25;75.49
64844;BME280;51310;52.198;5.422;2023-12-04T09:28:09;100578.28;;;1.28;75.49
64844;BME280;51310;52.198;5.422;2023-12-04T09:30:36;100577.34;;;1.31;75.01
64844;BME280;51310;52.198;5.422;2023-12-04T09:33:03;100578.06;;;1.36;74.71
64844;BME280;51310;52.198;5.422;2023-12-04T09:35:29;100566.56;;;1.38;74.59
64844;BME280;51310;52.198;5.422;2023-12-04T09:37:55;100587.47;;;1.44;74.95
64844;BME280;51310;52.198;5.422;2023-12-04T09:40:22;100557.03;;;1.34;74.65
64844;BME280;51310;52.198;5.422;2023-12-04T09:42:48;100571.47;;;1.51;74.68
64844;BME280;51310;52.198;5.422;2023-12-04T09:45:15;100582.81;;;1.53;74.22
64844;BME280;51310;52.198;5.422;2023-12-04T09:47:42;100574.03;;;1.54;74.18
64844;BME280;51310;52.198;5.422;2023-12-04T09:50:10;100583.47;;;1.61;73.70
64844;BME280;51310;52.198;5.422;2023-12-04T09:52:37;100573.03;;;1.58;73.66
64844;BME280;51310;52.198;5.422;2023-12-04T09:55:03;100559.91;;;1.56;73.92
64844;BME280;51310;52.198;5.422;2023-12-04T09:57:31;100565.84;;;1.63;73.60
64844;BME280;51310;52.198;5.422;2023-12-04T09:59:59;100565.84;;;1.63;73.34
64844;BME280;51310;52.198;5.422;2023-12-04T10:02:26;100557.94;;;1.63;73.53
64844;BME280;51310;52.198;5.422;2023-12-04T10:04:52;100548.28;;;1.62;73.28
64844;BME280;51310;52.198;5.422;2023-12-04T10:07:18;100544.81;;;1.61;72.91
64844;BME280;51310;52.198;5.422;2023-12-04T10:09:44;100553.19;;;1.74;72.72
64844;BME280;51310;52.198;5.422;2023-12-04T10:12:10;100554.72;;;1.81;72.25
64844;BME280;51310;52.198;5.422;2023-12-04T10:14:36;100543.38;;;1.79;72.04
64844;BME280;51310;52.198;5.422;2023-12-04T10:17:17;100526.75;;;1.77;71.93
64844;BME280;51310;52.198;5.422;2023-12-04T10:19:43;100538.72;;;1.87;71.42
64844;BME280;51310;52.198;5.422;2023-12-04T10:22:09;100541.97;;;1.96;71.74
64844;BME280;51310;52.198;5.422;2023-12-04T10:24:38;100545.34;;;2.01;71.17
64844;BME280;51310;52.198;5.422;2023-12-04T10:27:09;100536.31;;;2.08;71.28
64844;BME280;51310;52.198;5.422;2023-12-04T10:29:47;100532.75;;;2.09;70.90
64844;BME280;51310;52.198;5.422;2023-12-04T10:32:21;100529.22;;;2.10;70.27
64844;BME280;51310;52.198;5.422;2023-12-04T10:34:47;100523.84;;;2.13;70.23
64844;BME280;51310;52.198;5.422;2023-12-04T10:37:15;100508.13;;;2.10;70.79
64844;BME280;51310;52.198;5.422;2023-12-04T10:39:51;100525.34;;;2.20;70.16
64844;BME280;51310;52.198;5.422;2023-12-04T10:42:30;100493.94;;;2.14;70.36
64844;BME280;51310;52.198;5.422;2023-12-04T10:44:57;100512.78;;;2.28;70.11
64844;BME280;51310;52.198;5.422;2023-12-04T10:47:25;100511.81;;;2.31;69.92
64844;BME280;51310;52.198;5.422;2023-12-04T10:49:52;100495.03;;;2.34;69.61
64844;BME280;51310;52.198;5.422;2023-12-04T10:52:19;100481.91;;;2.32;69.31
64844;BME280;51310;52.198;5.422;2023-12-04T10:54:48;100493.84;;;2.42;69.64
64844;BME280;51310;52.198;5.422;2023-12-04T10:57:26;100490.34;;;2.42;69.24
64844;BME280;51310;52.198;5.422;2023-12-04T11:00:04;100493.00;;;2.42;68.84
64844;BME280;51310;52.198;5.422;2023-12-04T11:02:34;100487.84;;;2.39;68.92
64844;BME280;51310;52.198;5.422;2023-12-04T11:05:20;100483.19;;;2.45;69.19
64844;BME280;51310;52.198;5.422;2023-12-04T11:07:50;100465.13;;;2.35;69.12
64844;BME280;51310;52.198;5.422;2023-12-04T11:10:22;100454.78;;;2.28;68.60
64844;BME280;51310;52.198;5.422;2023-12-04T11:13:02;100456.47;;;2.29;68.14
64844;BME280;51310;52.198;5.422;2023-12-04T11:15:39;100467.63;;;2.38;68.99
64844;BME280;51310;52.198;5.422;2023-12-04T11:18:08;100437.25;;;2.27;68.70
64844;BME280;51310;52.198;5.422;2023-12-04T11:20:54;100429.41;;;2.24;69.53
64844;BME280;51310;52.198;5.422;2023-12-04T11:23:23;100439.72;;;2.32;69.15
64844;BME280;51310;52.198;5.422;2023-12-04T11:25:49;100438.09;;;2.28;69.03
64844;BME280;51310;52.198;5.422;2023-12-04T11:28:16;100431.81;;;2.32;69.54
64844;BME280;51310;52.198;5.422;2023-12-04T11:30:44;100428.19;;;2.35;69.71
64844;BME280;51310;52.198;5.422;2023-12-04T11:33:11;100417.66;;;2.35;69.96
64844;BME280;51310;52.198;5.422;2023-12-04T11:35:38;100420.16;;;2.38;70.17
64844;BME280;51310;52.198;5.422;2023-12-04T11:38:07;100421.81;;;2.40;70.47
64844;BME280;51310;52.198;5.422;2023-12-04T11:40:35;100414.28;;;2.29;69.96
64844;BME280;51310;52.198;5.422;2023-12-04T11:43:26;100404.69;;;2.28;70.67
64844;BME280;51310;52.198;5.422;2023-12-04T11:45:54;100414.00;;;2.39;71.36
64844;BME280;51310;52.198;5.422;2023-12-04T11:48:33;100404.50;;;2.33;71.20
64844;BME280;51310;52.198;5.422;2023-12-04T11:51:00;100406.97;;;2.38;70.97
64844;BME280;51310;52.198;5.422;2023-12-04T11:53:27;100404.50;;;2.33;70.85
64844;BME280;51310;52.198;5.422;2023-12-04T11:55:55;100414.13;;;2.34;70.94
64844;BME280;51310;52.198;5.422;2023-12-04T11:58:24;100393.66;;;2.17;70.76
64844;BME280;51310;52.198;5.422;2023-12-04T12:00:52;100402.16;;;2.25;71.20
64844;BME280;51310;52.198;5.422;2023-12-04T12:03:18;100383.91;;;2.19;71.50
64844;BME280;51310;52.198;5.422;2023-12-04T12:05:49;100386.34;;;2.25;71.57
64844;BME280;51310;52.198;5.422;2023-12-04T12:08:16;100402.25;;;2.22;71.80
64844;BME280;51310;52.198;5.422;2023-12-04T12:10:42;100372.78;;;2.11;71.27
64844;BME280;51310;52.198;5.422;2023-12-04T12:13:10;100383.88;;;2.21;71.51
64844;BME280;51310;52.198;5.422;2023-12-04T12:15:37;100387.25;;;2.24;72.06
64844;BME280;51310;52.198;5.422;2023-12-04T12:18:03;100382.91;;;2.23;71.82
64844;BME280;51310;52.198;5.422;2023-12-04T12:20:31;100361.22;;;2.15;71.91
64844;BME280;51310;52.198;5.422;2023-12-04T12:22:58;100372.22;;;2.26;72.33
64844;BME280;51310;52.198;5.422;2023-12-04T12:25:24;100368.56;;;2.31;72.34
64844;BME280;51310;52.198;5.422;2023-12-04T12:27:51;100359.81;;;2.30;72.01
64844;BME280;51310;52.198;5.422;2023-12-04T12:30:17;100364.91;;;2.35;71.97
64844;BME280;51310;52.198;5.422;2023-12-04T12:32:43;100342.66;;;2.42;71.81
64844;BME280;51310;52.198;5.422;2023-12-04T12:35:09;100363.59;;;2.46;70.88
64844;BME280;51310;52.198;5.422;2023-12-04T12:37:35;100367.84;;;2.50;71.09
64844;BME280;51310;52.198;5.422;2023-12-04T12:40:03;100349.91;;;2.37;70.94
64844;BME280;51310;52.198;5.422;2023-12-04T12:42:30;100362.72;;;2.46;71.17
64844;BME280;51310;52.198;5.422;2023-12-04T12:45:01;100365.41;;;2.44;71.31
64844;BME280;51310;52.198;5.422;2023-12-04T12:47:29;100345.56;;;2.34;71.33
64844;BME280;51310;52.198;5.422;2023-12-04T12:49:56;100339.91;;;2.21;71.22
64844;BME280;51310;52.198;5.422;2023-12-04T12:52:22;100314.53;;;2.19;71.20
64844;BME280;51310;52.198;5.422;2023-12-04T12:54:47;100331.91;;;2.23;71.57
64844;BME280;51310;52.198;5.422;2023-12-04T12:57:13;100329.81;;;2.33;71.54
64844;BME280;51310;52.198;5.422;2023-12-04T12:59:40;100302.81;;;2.26;71.72